sensor_id;sensor_type;location;lat;lon;timestamp;P1;durP1;ratioP1;P2;durP2;ratioP2
34471;SDS011;20710;49.976;19.836;2024-03-06T00:00:05;69.00;;;34.50;;
34471;SDS011;20710;49.976;19.836;2024-03-06T00:06:12;72.50;;;34.40;;
34471;SDS011;20710;49.976;19.836;2024-03-06T00:12:14;72.10;;;35.60;;
34471;SDS011;20710;49.976;19.836;2024-03-06T00:18:16;57.80;;;29.00;;
34471;SDS011;20710;49.976;19.836;2024-03-06T00:24:18;56.80;;;28.50;;
34471;SDS011;20710;49.976;19.836;2024-03-06T00:30:20;66.80;;;30.90;;
34471;SDS011;20710;49.976;19.836;2024-03-06T00:36:23;68.10;;;33.30;;
34471;SDS011;20710;49.976;19.836;2024-03-06T00:42:25;69.30;;;32.00;;
34471;SDS011;20710;49.976;19.836;2024-03-06T00:48:27;66.40;;;32.70;;
34471;SDS011;20710;49.976;19.836;2024-03-06T00:54:29;72.10;;;33.80;;
34471;SDS011;20710;49.976;19.836;2024-03-06T01:00:31;72.20;;;34.50;;
34471;SDS011;20710;49.976;19.836;2024-03-06T01:06:36;79.40;;;37.50;;
34471;SDS011;20710;49.976;19.836;2024-03-06T01:12:38;79.50;;;36.90;;
34471;SDS011;20710;49.976;19.836;2024-03-06T01:18:40;85.80;;;38.30;;
34471;SDS011;20710;49.976;19.836;2024-03-06T01:24:42;84.00;;;37.10;;
34471;SDS011;20710;49.976;19.836;2024-03-06T01:30:44;88.30;;;37.30;;
34471;SDS011;20710;49.976;19.836;2024-03-06T01:36:46;80.00;;;36.70;;
34471;SDS011;20710;49.976;19.836;2024-03-06T01:42:48;81.60;;;37.60;;
34471;SDS011;20710;49.976;19.836;2024-03-06T01:48:50;71.80;;;33.70;;
34471;SDS011;20710;49.976;19.836;2024-03-06T01:54:52;76.20;;;35.40;;
34471;SDS011;20710;49.976;19.836;2024-03-06T02:00:55;90.90;;;36.70;;
34471;SDS011;20710;49.976;19.836;2024-03-06T02:06:57;91.60;;;38.70;;
34471;SDS011;20710;49.976;19.836;2024-03-06T02:12:59;87.40;;;35.80;;
34471;SDS011;20710;49.976;19.836;2024-03-06T02:19:02;86.70;;;36.80;;
34471;SDS011;20710;49.976;19.836;2024-03-06T02:25:05;82.60;;;32.60;;
34471;SDS011;20710;49.976;19.836;2024-03-06T02:31:12;70.00;;;28.90;;
34471;SDS011;20710;49.976;19.836;2024-03-06T02:37:14;88.30;;;31.60;;
34471;SDS011;20710;49.976;19.836;2024-03-06T02:43:16;82.60;;;37.00;;
34471;SDS011;20710;49.976;19.836;2024-03-06T02:49:18;99.70;;;38.20;;
34471;SDS011;20710;49.976;19.836;2024-03-06T02:55:21;89.00;;;35.80;;
34471;SDS011;20710;49.976;19.836;2024-03-06T03:01:23;75.10;;;32.80;;
34471;SDS011;20710;49.976;19.836;2024-03-06T03:07:25;81.50;;;34.20;;
34471;SDS011;20710;49.976;19.836;2024-03-06T03:13:27;83.60;;;34.00;;
34471;SDS011;20710;49.976;19.836;2024-03-06T03:19:29;121.50;;;43.20;;
34471;SDS011;20710;49.976;19.836;2024-03-06T03:25:31;105.00;;;39.60;;
34471;SDS011;20710;49.976;19.836;2024-03-06T03:31:32;103.40;;;38.50;;
34471;SDS011;20710;49.976;19.836;2024-03-06T03:37:34;119.90;;;38.50;;
34471;SDS011;20710;49.976;19.836;2024-03-06T03:43:37;140.90;;;38.90;;
34471;SDS011;20710;49.976;19.836;2024-03-06T03:49:40;124.20;;;38.10;;
34471;SDS011;20710;49.976;19.836;2024-03-06T03:55:45;201.00;;;42.70;;
34471;SDS011;20710;49.976;19.836;2024-03-06T04:01:46;148.70;;;39.60;;
34471;SDS011;20710;49.976;19.836;2024-03-06T04:07:49;157.90;;;39.10;;
34471;SDS011;20710;49.976;19.836;2024-03-06T04:13:51;136.60;;;39.40;;
34471;SDS011;20710;49.976;19.836;2024-03-06T04:19:53;138.40;;;38.40;;
34471;SDS011;20710;49.976;19.836;2024-03-06T04:25:57;164.90;;;29.90;;
34471;SDS011;20710;49.976;19.836;2024-03-06T04:31:59;118.80;;;28.60;;
34471;SDS011;20710;49.976;19.836;2024-03-06T04:38:01;149.50;;;29.70;;
34471;SDS011;20710;49.976;19.836;2024-03-06T04:44:05;153.00;;;31.40;;
34471;SDS011;20710;49.976;19.836;2024-03-06T04:50:11;159.00;;;29.80;;
34471;SDS011;20710;49.976;19.836;2024-03-06T04:56:13;121.60;;;29.30;;
34471;SDS011;20710;49.976;19.836;2024-03-06T05:02:15;149.20;;;32.30;;
34471;SDS011;20710;49.976;19.836;2024-03-06T05:08:18;99.90;;;28.90;;
34471;SDS011;20710;49.976;19.836;2024-03-06T05:14:20;114.00;;;29.90;;
34471;SDS011;20710;49.976;19.836;2024-03-06T05:20:22;119.60;;;30.70;;
34471;SDS011;20710;49.976;19.836;2024-03-06T05:26:24;115.30;;;37.60;;
34471;SDS011;20710;49.976;19.836;2024-03-06T05:32:26;97.60;;;32.60;;
34471;SDS011;20710;49.976;19.836;2024-03-06T05:38:28;73.50;;;30.10;;
34471;SDS011;20710;49.976;19.836;2024-03-06T05:44:30;116.50;;;31.90;;
34471;SDS011;20710;49.976;19.836;2024-03-06T05:50:33;110.00;;;32.60;;
34471;SDS011;20710;49.976;19.836;2024-03-06T05:56:35;98.10;;;29.20;;
34471;SDS011;20710;49.976;19.836;2024-03-06T06:02:39;92.40;;;30.20;;
34471;SDS011;20710;49.976;19.836;2024-03-06T06:08:41;99.60;;;30.30;;
34471;SDS011;20710;49.976;19.836;2024-03-06T06:14:45;97.90;;;29.40;;
34471;SDS011;20710;49.976;19.836;2024-03-06T06:20:47;110.70;;;28.60;;
34471;SDS011;20710;49.976;19.836;2024-03-06T06:26:50;103.00;;;36.90;;
34471;SDS011;20710;49.976;19.836;2024-03-06T06:32:52;107.20;;;36.90;;
34471;SDS011;20710;49.976;19.836;2024-03-06T06:38:53;118.10;;;41.70;;
34471;SDS011;20710;49.976;19.836;2024-03-06T06:44:55;156.40;;;45.80;;
34471;SDS011;20710;49.976;19.836;2024-03-06T06:50:57;131.90;;;44.70;;
34471;SDS011;20710;49.976;19.836;2024-03-06T06:56:59;143.30;;;50.60;;
34471;SDS011;20710;49.976;19.836;2024-03-06T07:03:08;125.40;;;45.50;;
34471;SDS011;20710;49.976;19.836;2024-03-06T07:09:10;118.60;;;42.20;;
34471;SDS011;20710;49.976;19.836;2024-03-06T07:15:13;114.00;;;41.80;;
34471;SDS011;20710;49.976;19.836;2024-03-06T07:21:15;113.90;;;41.20;;
34471;SDS011;20710;49.976;19.836;2024-03-06T07:27:17;135.40;;;47.80;;
34471;SDS011;20710;49.976;19.836;2024-03-06T07:33:20;106.20;;;39.10;;
34471;SDS011;20710;49.976;19.836;2024-03-06T07:39:22;89.40;;;35.50;;
34471;SDS011;20710;49.976;19.836;2024-03-06T07:45:24;80.90;;;33.50;;
34471;SDS011;20710;49.976;19.836;2024-03-06T07:51:26;78.80;;;32.20;;
34471;SDS011;20710;49.976;19.836;2024-03-06T07:57:28;84.80;;;34.60;;
34471;SDS011;20710;49.976;19.836;2024-03-06T08:03:29;81.10;;;33.00;;
34471;SDS011;20710;49.976;19.836;2024-03-06T08:09:30;79.80;;;33.70;;
34471;SDS011;20710;49.976;19.836;2024-03-06T08:15:36;91.80;;;37.80;;
34471;SDS011;20710;49.976;19.836;2024-03-06T08:21:46;75.90;;;33.80;;
34471;SDS011;20710;49.976;19.836;2024-03-06T08:27:47;69.70;;;32.50;;
34471;SDS011;20710;49.976;19.836;2024-03-06T08:33:48;66.90;;;28.50;;
34471;SDS011;20710;49.976;19.836;2024-03-06T08:39:49;74.20;;;32.20;;
34471;SDS011;20710;49.976;19.836;2024-03-06T08:45:50;67.10;;;30.60;;
34471;SDS011;20710;49.976;19.836;2024-03-06T08:51:50;62.80;;;30.00;;
34471;SDS011;20710;49.976;19.836;2024-03-06T08:57:51;64.40;;;28.40;;
34471;SDS011;20710;49.976;19.836;2024-03-06T09:03:53;60.80;;;27.30;;
34471;SDS011;20710;49.976;19.836;2024-03-06T09:09:54;56.10;;;28.30;;
34471;SDS011;20710;49.976;19.836;2024-03-06T09:15:55;68.20;;;31.50;;
34471;SDS011;20710;49.976;19.836;2024-03-06T09:21:56;62.40;;;29.80;;
34471;SDS011;20710;49.976;19.836;2024-03-06T09:28:21;72.90;;;33.10;;
34471;SDS011;20710;49.976;19.836;2024-03-06T09:34:28;72.00;;;32.60;;
34471;SDS011;20710;49.976;19.836;2024-03-06T09:40:38;68.60;;;32.30;;
34471;SDS011;20710;49.976;19.836;2024-03-06T09:46:45;67.90;;;31.80;;
34471;SDS011;20710;49.976;19.836;2024-03-06T09:52:47;71.20;;;31.60;;
34471;SDS011;20710;49.976;19.836;2024-03-06T09:58:57;62.50;;;30.70;;
34471;SDS011;20710;49.976;19.836;2024-03-06T10:04:58;72.00;;;32.60;;
34471;SDS011;20710;49.976;19.836;2024-03-06T10:10:59;66.70;;;31.90;;
34471;SDS011;20710;49.976;19.836;2024-03-06T10:17:03;80.90;;;34.90;;
34471;SDS011;20710;49.976;19.836;2024-03-06T10:23:08;69.60;;;34.00;;
34471;SDS011;20710;49.976;19.836;2024-03-06T10:29:24;74.00;;;36.30;;
34471;SDS011;20710;49.976;19.836;2024-03-06T10:35:30;66.90;;;34.40;;
34471;SDS011;20710;49.976;19.836;2024-03-06T10:41:32;71.70;;;34.30;;
34471;SDS011;20710;49.976;19.836;2024-03-06T10:47:49;61.50;;;30.30;;
34471;SDS011;20710;49.976;19.836;2024-03-06T10:53:53;59.60;;;29.90;;
34471;SDS011;20710;49.976;19.836;2024-03-06T11:00:02;62.40;;;31.40;;
34471;SDS011;20710;49.976;19.836;2024-03-06T11:06:14;56.50;;;30.50;;
34471;SDS011;20710;49.976;19.836;2024-03-06T11:12:39;63.70;;;32.70;;
34471;SDS011;20710;49.976;19.836;2024-03-06T11:19:06;65.20;;;33.60;;
34471;SDS011;20710;49.976;19.836;2024-03-06T11:25:55;63.70;;;32.50;;
34471;SDS011;20710;49.976;19.836;2024-03-06T11:38:11;60.00;;;30.80;;
34471;SDS011;20710;49.976;19.836;2024-03-06T11:44:14;60.90;;;31.60;;
34471;SDS011;20710;49.976;19.836;2024-03-06T11:50:16;66.60;;;34.60;;
34471;SDS011;20710;49.976;19.836;2024-03-06T11:56:20;80.40;;;39.10;;
34471;SDS011;20710;49.976;19.836;2024-03-06T12:02:21;67.40;;;34.20;;
34471;SDS011;20710;49.976;19.836;2024-03-06T12:08:22;63.60;;;34.40;;
34471;SDS011;20710;49.976;19.836;2024-03-06T12:14:24;68.80;;;36.50;;
34471;SDS011;20710;49.976;19.836;2024-03-06T12:20:25;76.50;;;38.80;;
34471;SDS011;20710;49.976;19.836;2024-03-06T12:26:28;77.10;;;39.20;;
34471;SDS011;20710;49.976;19.836;2024-03-06T12:32:31;75.10;;;38.50;;
34471;SDS011;20710;49.976;19.836;2024-03-06T12:38:32;76.00;;;38.80;;
34471;SDS011;20710;49.976;19.836;2024-03-06T12:44:34;71.40;;;36.40;;
34471;SDS011;20710;49.976;19.836;2024-03-06T12:50:37;61.70;;;34.40;;
34471;SDS011;20710;49.976;19.836;2024-03-06T12:56:39;62.10;;;32.10;;
34471;SDS011;20710;49.976;19.836;2024-03-06T13:02:42;64.10;;;34.60;;
34471;SDS011;20710;49.976;19.836;2024-03-06T13:08:44;70.60;;;36.40;;
34471;SDS011;20710;49.976;19.836;2024-03-06T13:14:45;68.60;;;35.90;;
34471;SDS011;20710;49.976;19.836;2024-03-06T13:20:46;64.10;;;32.40;;
34471;SDS011;20710;49.976;19.836;2024-03-06T13:26:47;63.20;;;31.90;;
34471;SDS011;20710;49.976;19.836;2024-03-06T13:32:47;63.10;;;32.20;;
34471;SDS011;20710;49.976;19.836;2024-03-06T13:38:48;62.30;;;32.10;;
34471;SDS011;20710;49.976;19.836;2024-03-06T13:44:49;65.40;;;32.70;;
34471;SDS011;20710;49.976;19.836;2024-03-06T13:50:50;70.40;;;34.80;;
34471;SDS011;20710;49.976;19.836;2024-03-06T13:56:51;72.70;;;34.80;;
34471;SDS011;20710;49.976;19.836;2024-03-06T14:02:54;76.90;;;35.70;;
